Time;durP1;ratioP1;P1;durP2;ratioP2;P2;SDS_P1;SDS_P2;PMS_P1;PMS_P2;Temp;Humidity;BMP_temperature;BMP_pressure;BME280_temperature;BME280_humidity;BME280_pressure;Samples;Min_cycle;Max_cycle;Signal;HPM_P1;HPM_P2
2021/10/02 00:45:40;;;;;;;16.95;2.80;;;;;;;;;;5066140;28;20083;-42
2021/10/02 00:48:08;;;;;;;17.77;2.30;;;;;;;;;;5056998;28;20043;-42
2021/10/02 00:50:35;;;;;;;19.48;3.15;;;;;;;;;;5066081;28;20024;-42
2021/10/02 00:53:02;;;;;;;11.90;2.70;;;;;;;;;;5068805;28;20091;-42
2021/10/02 00:55:30;;;;;;;27.23;6.53;;;;;;;;;;5066970;28;20024;-42
2021/10/02 00:57:57;;;;;;;21.52;4.70;;;;;;;;;;5069818;28;20013;-43
2021/10/02 01:00:25;;;;;;;35.00;8.02;;;;;;;;;;5066909;28;20376;-43
2021/10/02 01:03:01;;;;;;;40.33;8.85;;;;;;;;;;5073849;28;20024;-42
2021/10/02 01:05:34;;;;;;;54.95;13.70;;;;;;;;;;5070281;28;20586;-43
2021/10/02 01:08:04;;;;;;;49.65;15.75;;;;;;;;;;5069188;28;20028;-43
2021/10/02 01:10:41;;;;;;;42.67;12.20;;;;;;;;;;5068207;28;20017;-42
2021/10/02 01:13:16;;;;;;;52.92;14.75;;;;;;;;;;5070333;28;20021;-42
2021/10/02 01:16:02;;;;;;;54.20;15.23;;;;;;;;;;5069310;28;20400;-43
2021/10/02 01:18:29;;;;;;;54.08;16.75;;;;;;;;;;5063325;28;20033;-42
2021/10/02 01:20:59;;;;;;;51.15;16.30;;;;;;;;;;5064429;28;20012;-43
2021/10/02 01:23:26;;;;;;;51.92;15.52;;;;;;;;;;5069135;28;20112;-43
2021/10/02 01:26:03;;;;;;;60.35;18.00;;;;;;;;;;5070477;28;20078;-43
2021/10/02 01:28:32;;;;;;;52.13;15.45;;;;;;;;;;5069062;28;20086;-43
2021/10/02 01:34:02;;;;;;;49.38;16.77;;;;;;;;;;5072778;28;20028;-42
2021/10/02 01:47:48;;;;;;;35.67;12.75;;;;;;;;;;5065499;28;20451;-44
2021/10/02 01:50:16;;;;;;;39.97;12.20;;;;;;;;;;5066056;28;20086;-43
2021/10/02 01:52:45;;;;;;;34.22;10.65;;;;;;;;;;5075593;28;20042;-43
2021/10/02 01:55:13;;;;;;;36.65;11.68;;;;;;;;;;5066027;28;20017;-43
2021/10/02 01:57:42;;;;;;;33.20;9.73;;;;;;;;;;5080750;28;20102;-43
2021/10/02 02:00:11;;;;;;;37.63;9.77;;;;;;;;;;5089350;28;20464;-43
2021/10/02 02:02:40;;;;;;;34.95;9.98;;;;;;;;;;5083526;28;20024;-43
2021/10/02 02:05:08;;;;;;;30.70;8.95;;;;;;;;;;5063695;28;20100;-43
2021/10/02 02:07:36;;;;;;;25.83;9.40;;;;;;;;;;5084953;28;20024;-43
2021/10/02 02:10:05;;;;;;;20.67;8.35;;;;;;;;;;5070794;28;20487;-43
2021/10/02 02:12:34;;;;;;;21.33;7.40;;;;;;;;;;5089541;28;20039;-43
2021/10/02 02:15:05;;;;;;;28.58;8.23;;;;;;;;;;5085870;28;20100;-43
2021/10/02 02:17:34;;;;;;;23.92;7.25;;;;;;;;;;5089463;28;20020;-43
2021/10/02 02:20:03;;;;;;;23.88;6.93;;;;;;;;;;5089158;28;20032;-43
2021/10/02 02:22:31;;;;;;;20.05;7.05;;;;;;;;;;5089162;28;20051;-43
2021/10/02 02:24:58;;;;;;;20.30;7.00;;;;;;;;;;5088459;28;20028;-43
2021/10/02 02:27:27;;;;;;;22.40;6.75;;;;;;;;;;5085360;28;20080;-43
2021/10/02 02:29:54;;;;;;;26.85;6.72;;;;;;;;;;5087745;28;20495;-43
2021/10/02 02:32:22;;;;;;;17.00;6.50;;;;;;;;;;5082464;28;20468;-43
2021/10/02 02:34:49;;;;;;;22.75;5.93;;;;;;;;;;5084093;28;20033;-43
2021/10/02 02:37:16;;;;;;;17.00;5.22;;;;;;;;;;5083906;28;20050;-43
2021/10/02 02:39:44;;;;;;;21.23;5.18;;;;;;;;;;5085690;28;20046;-42
2021/10/02 02:42:12;;;;;;;17.30;5.30;;;;;;;;;;5075979;28;20085;-43
2021/10/02 02:44:40;;;;;;;17.92;5.05;;;;;;;;;;5084402;28;20031;-43
2021/10/02 02:47:10;;;;;;;20.38;4.97;;;;;;;;;;5085808;28;20105;-43
2021/10/02 02:49:55;;;;;;;16.77;4.85;;;;;;;;;;5071753;28;20040;-43
2021/10/02 02:52:25;;;;;;;18.38;4.63;;;;;;;;;;5065990;28;20056;-43
2021/10/02 02:54:52;;;;;;;20.75;4.60;;;;;;;;;;5085950;28;20032;-43
2021/10/02 02:57:21;;;;;;;13.77;4.18;;;;;;;;;;5086450;28;20057;-43
2021/10/02 02:59:52;;;;;;;14.30;3.42;;;;;;;;;;5071025;28;20024;-43
2021/10/02 03:02:20;;;;;;;13.40;4.55;;;;;;;;;;5084889;28;20375;-43
2021/10/02 03:04:49;;;;;;;14.48;3.97;;;;;;;;;;5088896;28;20414;-43
2021/10/02 03:07:19;;;;;;;12.52;3.70;;;;;;;;;;5082653;28;20523;-44
2021/10/02 03:09:47;;;;;;;14.32;3.47;;;;;;;;;;5068114;28;20041;-43
2021/10/02 03:12:15;;;;;;;13.52;3.63;;;;;;;;;;5059185;28;20032;-43
2021/10/02 03:14:46;;;;;;;11.10;3.33;;;;;;;;;;5061763;28;20063;-43
2021/10/02 03:17:15;;;;;;;15.87;3.40;;;;;;;;;;5060124;28;20375;-43
2021/10/02 03:19:43;;;;;;;9.73;2.88;;;;;;;;;;5050492;28;20488;-43
2021/10/02 03:22:10;;;;;;;12.65;3.40;;;;;;;;;;5057622;28;20056;-43
2021/10/02 03:24:38;;;;;;;12.50;3.25;;;;;;;;;;5062356;28;20028;-43
2021/10/02 03:27:08;;;;;;;12.02;3.65;;;;;;;;;;5063133;28;20029;-43
2021/10/02 03:29:37;;;;;;;11.57;3.33;;;;;;;;;;5055172;28;20546;-44
2021/10/02 03:32:08;;;;;;;10.68;3.42;;;;;;;;;;5059256;28;20039;-43
2021/10/02 03:34:37;;;;;;;14.02;3.17;;;;;;;;;;5053813;28;20389;-43
2021/10/02 03:37:05;;;;;;;9.57;2.55;;;;;;;;;;5042244;28;20730;-43
2021/10/02 03:39:33;;;;;;;10.02;2.60;;;;;;;;;;5062645;28;20021;-43
2021/10/02 03:42:08;;;;;;;8.85;2.60;;;;;;;;;;5053275;28;20109;-43
2021/10/02 03:44:35;;;;;;;11.00;2.90;;;;;;;;;;5070640;28;20040;-43
2021/10/02 03:47:03;;;;;;;7.68;2.30;;;;;;;;;;5070122;28;20503;-42
2021/10/02 03:49:31;;;;;;;10.75;2.63;;;;;;;;;;5063728;28;20045;-42
2021/10/02 03:51:58;;;;;;;6.25;2.58;;;;;;;;;;5041150;28;20041;-44
2021/10/02 03:54:25;;;;;;;8.38;2.55;;;;;;;;;;5061911;28;20100;-42
2021/10/02 03:56:52;;;;;;;11.05;2.50;;;;;;;;;;5055082;28;20163;-42
2021/10/02 03:59:19;;;;;;;8.65;2.15;;;;;;;;;;5068730;28;20027;-42
2021/10/02 04:01:46;;;;;;;7.40;2.42;;;;;;;;;;5064683;28;20024;-42
2021/10/02 04:04:13;;;;;;;12.73;2.30;;;;;;;;;;5077670;28;20039;-42
2021/10/02 04:06:40;;;;;;;10.43;2.60;;;;;;;;;;5088061;28;20106;-42
2021/10/02 04:09:07;;;;;;;13.25;2.45;;;;;;;;;;5077685;28;20593;-42
2021/10/02 04:11:35;;;;;;;6.38;2.40;;;;;;;;;;5066244;28;20106;-42
2021/10/02 04:14:02;;;;;;;6.60;2.22;;;;;;;;;;5073353;28;20032;-41
2021/10/02 04:16:30;;;;;;;7.50;1.98;;;;;;;;;;5072618;28;20027;-42
2021/10/02 04:18:58;;;;;;;5.53;1.77;;;;;;;;;;5072960;28;20025;-42
2021/10/02 04:21:25;;;;;;;10.50;2.40;;;;;;;;;;5065434;28;20029;-41
2021/10/02 04:23:52;;;;;;;7.63;2.10;;;;;;;;;;5052412;28;20495;-42
2021/10/02 04:26:21;;;;;;;7.07;1.85;;;;;;;;;;5052521;28;20017;-42
2021/10/02 04:28:51;;;;;;;8.35;2.00;;;;;;;;;;5052400;28;20068;-42
2021/10/02 04:31:18;;;;;;;10.07;2.10;;;;;;;;;;5051266;28;20079;-42
2021/10/02 04:33:45;;;;;;;8.38;2.13;;;;;;;;;;5051487;28;20029;-42
2021/10/02 04:36:13;;;;;;;5.40;1.70;;;;;;;;;;5052680;28;20017;-42
2021/10/02 04:38:40;;;;;;;17.08;2.15;;;;;;;;;;5052965;28;20027;-42
2021/10/02 04:41:09;;;;;;;8.60;2.15;;;;;;;;;;5059312;28;20055;-42
2021/10/02 04:43:40;;;;;;;7.50;2.28;;;;;;;;;;5045576;28;20025;-42
2021/10/02 04:46:09;;;;;;;7.38;2.00;;;;;;;;;;5050754;28;20060;-42
2021/10/02 04:48:37;;;;;;;9.30;1.85;;;;;;;;;;5051878;28;20033;-42
2021/10/02 04:51:04;;;;;;;6.97;2.00;;;;;;;;;;5056041;28;20496;-42
2021/10/02 04:53:32;;;;;;;3.78;1.63;;;;;;;;;;5067292;28;20023;-42
2021/10/02 04:56:00;;;;;;;4.90;1.73;;;;;;;;;;5071518;28;20029;-42
2021/10/02 04:58:28;;;;;;;7.45;1.77;;;;;;;;;;5071333;28;20023;-42
2021/10/02 05:00:55;;;;;;;4.35;1.48;;;;;;;;;;5072506;28;20168;-42
2021/10/02 05:03:23;;;;;;;4.65;1.33;;;;;;;;;;5053430;28;20033;-42
2021/10/02 05:05:50;;;;;;;6.00;1.63;;;;;;;;;;5033553;28;20067;-41
2021/10/02 05:08:17;;;;;;;8.57;1.88;;;;;;;;;;5049865;28;20036;-42
2021/10/02 05:10:44;;;;;;;4.13;1.40;;;;;;;;;;5056529;28;20051;-42
2021/10/02 05:13:11;;;;;;;9.43;1.38;;;;;;;;;;5053661;28;20512;-42
2021/10/02 05:15:38;;;;;;;7.65;1.63;;;;;;;;;;5057204;28;20024;-42
2021/10/02 05:18:05;;;;;;;8.02;1.77;;;;;;;;;;5060605;28;20512;-42
2021/10/02 05:20:32;;;;;;;5.60;1.30;;;;;;;;;;5039670;28;20458;-41
2021/10/02 05:22:59;;;;;;;12.98;1.98;;;;;;;;;;5059322;28;20440;-42
2021/10/02 05:25:26;;;;;;;8.32;1.70;;;;;;;;;;5064116;28;20032;-42
2021/10/02 05:27:53;;;;;;;6.43;1.20;;;;;;;;;;5058835;28;20583;-42
2021/10/02 05:30:20;;;;;;;7.75;1.40;;;;;;;;;;5052147;28;20062;-42
2021/10/02 05:32:47;;;;;;;4.93;1.55;;;;;;;;;;5051327;28;20074;-41
2021/10/02 05:35:14;;;;;;;4.65;1.17;;;;;;;;;;5053437;28;20017;-41
2021/10/02 05:37:41;;;;;;;9.10;1.92;;;;;;;;;;5069946;28;20020;-40
2021/10/02 05:40:08;;;;;;;10.18;1.40;;;;;;;;;;5067832;28;20044;-41
2021/10/02 05:42:35;;;;;;;7.20;1.55;;;;;;;;;;5070625;28;20071;-41
2021/10/02 05:45:03;;;;;;;5.00;1.23;;;;;;;;;;5066347;28;20028;-41
2021/10/02 05:47:30;;;;;;;9.85;1.30;;;;;;;;;;5061320;28;20017;-42
2021/10/02 05:49:57;;;;;;;4.82;1.35;;;;;;;;;;5051595;28;20029;-42
2021/10/02 05:52:25;;;;;;;4.35;1.27;;;;;;;;;;5051788;28;20109;-41
2021/10/02 05:54:52;;;;;;;4.60;1.10;;;;;;;;;;5050957;28;20150;-41
2021/10/02 05:57:19;;;;;;;5.68;1.40;;;;;;;;;;5052113;28;20029;-41
2021/10/02 05:59:46;;;;;;;3.40;1.13;;;;;;;;;;5051795;28;20484;-42
2021/10/02 06:02:13;;;;;;;9.32;1.20;;;;;;;;;;5052269;28;20104;-42
2021/10/02 06:04:40;;;;;;;7.10;1.30;;;;;;;;;;5057848;28;20075;-41
2021/10/02 06:07:07;;;;;;;2.25;0.93;;;;;;;;;;5071745;28;20095;-42
2021/10/02 06:09:34;;;;;;;8.73;1.00;;;;;;;;;;5071339;28;20499;-41
2021/10/02 06:12:01;;;;;;;6.53;1.20;;;;;;;;;;5071552;28;20151;-41
2021/10/02 06:14:28;;;;;;;4.60;1.27;;;;;;;;;;5063772;28;20121;-41
2021/10/02 06:16:56;;;;;;;7.35;0.90;;;;;;;;;;5071914;28;20028;-41
2021/10/02 06:19:23;;;;;;;9.13;1.25;;;;;;;;;;5071147;28;20035;-41
2021/10/02 06:21:50;;;;;;;4.10;0.90;;;;;;;;;;5071696;28;20040;-41
2021/10/02 06:24:17;;;;;;;6.68;1.45;;;;;;;;;;5065380;28;20032;-41
2021/10/02 06:26:44;;;;;;;4.38;1.10;;;;;;;;;;5051046;28;20048;-42
2021/10/02 06:29:11;;;;;;;4.70;0.90;;;;;;;;;;5050949;28;20033;-41
2021/10/02 06:31:38;;;;;;;5.28;1.30;;;;;;;;;;5051422;28;20109;-42
2021/10/02 06:34:05;;;;;;;3.08;1.02;;;;;;;;;;5032315;28;20440;-42
2021/10/02 06:36:32;;;;;;;6.93;0.98;;;;;;;;;;5066154;28;20384;-42
2021/10/02 06:38:59;;;;;;;5.25;1.20;;;;;;;;;;5070858;28;20021;-42
2021/10/02 06:41:26;;;;;;;7.07;1.33;;;;;;;;;;5071362;28;20107;-41
2021/10/02 06:43:53;;;;;;;5.85;1.00;;;;;;;;;;5053095;28;20025;-42
2021/10/02 06:46:20;;;;;;;4.53;0.93;;;;;;;;;;5051137;28;20428;-42
2021/10/02 06:48:47;;;;;;;3.13;0.98;;;;;;;;;;5050528;28;20405;-42
2021/10/02 06:51:15;;;;;;;4.55;1.00;;;;;;;;;;5057920;28;20071;-41
2021/10/02 06:53:42;;;;;;;3.15;0.80;;;;;;;;;;5070893;28;20024;-41
2021/10/02 06:56:08;;;;;;;2.90;1.10;;;;;;;;;;5066820;28;20465;-41
2021/10/02 06:58:35;;;;;;;3.80;1.10;;;;;;;;;;5070135;28;20032;-38
2021/10/02 07:01:02;;;;;;;2.40;0.80;;;;;;;;;;5071191;28;20108;-38
2021/10/02 07:03:29;;;;;;;2.63;0.90;;;;;;;;;;5070998;28;20024;-39
2021/10/02 07:05:56;;;;;;;3.55;1.00;;;;;;;;;;5066400;28;20016;-37
2021/10/02 07:08:23;;;;;;;5.80;0.82;;;;;;;;;;5070153;28;20552;-39
2021/10/02 07:10:50;;;;;;;1.45;0.68;;;;;;;;;;5070969;28;20036;-38
2021/10/02 07:13:17;;;;;;;3.92;0.70;;;;;;;;;;5070593;28;20487;-38
2021/10/02 07:15:44;;;;;;;1.95;0.47;;;;;;;;;;5066310;28;20103;-38
2021/10/02 07:18:11;;;;;;;2.17;1.02;;;;;;;;;;5071257;28;20016;-39
2021/10/02 07:20:38;;;;;;;1.35;0.70;;;;;;;;;;5070292;28;20111;-38
2021/10/02 07:23:05;;;;;;;2.53;0.70;;;;;;;;;;5069678;28;20490;-39
2021/10/02 07:25:32;;;;;;;8.43;1.08;;;;;;;;;;5067344;28;20025;-39
2021/10/02 07:28:00;;;;;;;3.53;0.88;;;;;;;;;;5069274;28;20086;-39
2021/10/02 07:30:27;;;;;;;2.88;0.90;;;;;;;;;;5070593;28;20039;-37
2021/10/02 07:32:54;;;;;;;1.35;0.52;;;;;;;;;;5071139;28;20020;-38
2021/10/02 07:35:21;;;;;;;6.38;0.90;;;;;;;;;;5070475;28;20028;-38
2021/10/02 07:37:50;;;;;;;5.53;0.82;;;;;;;;;;5066495;28;20412;-38
2021/10/02 07:40:19;;;;;;;2.90;0.70;;;;;;;;;;5074353;28;20027;-39
2021/10/02 07:42:50;;;;;;;3.72;0.75;;;;;;;;;;5074567;28;20029;-39
2021/10/02 07:45:19;;;;;;;3.05;0.68;;;;;;;;;;5074075;28;20053;-39
2021/10/02 07:47:47;;;;;;;5.47;0.70;;;;;;;;;;5070156;28;20033;-40
2021/10/02 07:50:15;;;;;;;2.92;0.80;;;;;;;;;;5073871;28;20115;-38
2021/10/02 07:52:42;;;;;;;4.00;0.90;;;;;;;;;;5074408;28;20044;-39
2021/10/02 07:55:11;;;;;;;3.13;0.70;;;;;;;;;;5073356;28;20024;-39
2021/10/02 07:57:38;;;;;;;3.22;0.50;;;;;;;;;;5057804;28;20028;-39
2021/10/02 08:00:07;;;;;;;3.63;0.75;;;;;;;;;;5053713;28;20376;-39
2021/10/02 08:02:34;;;;;;;6.47;0.85;;;;;;;;;;5054360;28;20029;-39
2021/10/02 08:05:01;;;;;;;1.50;0.63;;;;;;;;;;5054236;28;20108;-39
2021/10/02 08:07:30;;;;;;;2.78;0.68;;;;;;;;;;5052099;28;20053;-39
2021/10/02 08:09:57;;;;;;;1.90;0.73;;;;;;;;;;5052899;28;20392;-38
2021/10/02 08:12:24;;;;;;;3.03;0.77;;;;;;;;;;5054069;28;20382;-39
2021/10/02 08:14:51;;;;;;;2.30;0.60;;;;;;;;;;5053674;28;20408;-39
2021/10/02 08:17:19;;;;;;;1.67;0.60;;;;;;;;;;5051076;28;20230;-38
2021/10/02 08:19:46;;;;;;;1.63;0.52;;;;;;;;;;5052676;28;20028;-39
2021/10/02 08:22:13;;;;;;;1.67;0.73;;;;;;;;;;5054030;28;20021;-39
2021/10/02 08:24:41;;;;;;;4.85;0.75;;;;;;;;;;5053677;28;20028;-38
2021/10/02 08:27:08;;;;;;;3.75;0.50;;;;;;;;;;5051869;28;20771;-38
2021/10/02 08:29:35;;;;;;;5.00;0.57;;;;;;;;;;5072107;28;20033;-39
2021/10/02 08:32:02;;;;;;;1.15;0.57;;;;;;;;;;5073934;28;20025;-39
2021/10/02 08:34:29;;;;;;;1.42;0.60;;;;;;;;;;5073588;28;20480;-40
2021/10/02 08:36:56;;;;;;;2.17;0.65;;;;;;;;;;5071936;28;20020;-39
2021/10/02 08:39:23;;;;;;;1.95;0.75;;;;;;;;;;5052304;28;20032;-40
2021/10/02 08:41:51;;;;;;;5.68;1.17;;;;;;;;;;5053402;28;20491;-40
2021/10/02 08:44:18;;;;;;;3.67;0.68;;;;;;;;;;5053540;28;20021;-39
2021/10/02 08:46:46;;;;;;;2.55;0.73;;;;;;;;;;5051896;28;20558;-39
2021/10/02 08:49:13;;;;;;;2.63;0.55;;;;;;;;;;5046577;28;20041;-38
2021/10/02 08:51:45;;;;;;;2.13;0.60;;;;;;;;;;5062704;28;20044;-38
2021/10/02 08:54:13;;;;;;;1.65;0.68;;;;;;;;;;5073516;28;20503;-38
2021/10/02 08:56:39;;;;;;;2.25;0.70;;;;;;;;;;5072690;28;20052;-38
2021/10/02 08:59:07;;;;;;;2.40;0.70;;;;;;;;;;5068289;28;20025;-38
2021/10/02 09:01:34;;;;;;;5.10;0.60;;;;;;;;;;5072789;28;20046;-39
2021/10/02 09:04:01;;;;;;;3.75;0.50;;;;;;;;;;5073161;28;20025;-39
2021/10/02 09:06:28;;;;;;;4.85;0.70;;;;;;;;;;5072896;28;20059;-39
2021/10/02 09:08:55;;;;;;;4.13;0.60;;;;;;;;;;5068043;28;20438;-39
2021/10/02 09:11:22;;;;;;;4.60;0.80;;;;;;;;;;5073293;28;20028;-38
2021/10/02 09:13:49;;;;;;;2.45;0.70;;;;;;;;;;5073204;28;20400;-38
2021/10/02 09:16:16;;;;;;;6.03;0.80;;;;;;;;;;5072445;28;20524;-39
2021/10/02 09:18:43;;;;;;;3.70;0.80;;;;;;;;;;5068313;28;21749;-38
2021/10/02 09:21:11;;;;;;;2.03;0.63;;;;;;;;;;5072268;28;20085;-39
2021/10/02 09:23:44;;;;;;;3.15;0.80;;;;;;;;;;5072564;28;20017;-40
2021/10/02 09:26:12;;;;;;;1.67;0.47;;;;;;;;;;5071905;28;20028;-40
2021/10/02 09:28:43;;;;;;;4.35;0.77;;;;;;;;;;5069040;28;20116;-39
2021/10/02 09:31:10;;;;;;;2.42;0.65;;;;;;;;;;5071728;28;20016;-40
2021/10/02 09:33:44;;;;;;;3.22;0.50;;;;;;;;;;5071911;28;20150;-40
2021/10/02 09:36:24;;;;;;;1.35;0.55;;;;;;;;;;5072264;28;20080;-40
2021/10/02 09:38:52;;;;;;;0.85;0.40;;;;;;;;;;5069253;28;20037;-39
2021/10/02 09:41:19;;;;;;;5.30;0.50;;;;;;;;;;5071008;28;20492;-39
2021/10/02 09:43:48;;;;;;;2.95;0.52;;;;;;;;;;5072186;28;20033;-40
2021/10/02 09:46:15;;;;;;;5.70;0.63;;;;;;;;;;5071504;28;20031;-39
2021/10/02 09:48:43;;;;;;;3.80;0.60;;;;;;;;;;5071734;28;20032;-38
2021/10/02 09:51:10;;;;;;;3.00;0.60;;;;;;;;;;5067873;28;20044;-39
2021/10/02 09:53:39;;;;;;;6.25;0.63;;;;;;;;;;5072188;28;20480;-40
2021/10/02 09:56:09;;;;;;;2.83;0.70;;;;;;;;;;5072032;28;20460;-39
2021/10/02 09:58:37;;;;;;;5.68;0.80;;;;;;;;;;5071911;28;20502;-40
2021/10/02 10:01:05;;;;;;;3.80;1.13;;;;;;;;;;5052105;28;20028;-40
2021/10/02 10:03:45;;;;;;;1.48;0.50;;;;;;;;;;5051353;28;20473;-39
2021/10/02 10:06:23;;;;;;;2.17;0.60;;;;;;;;;;5051915;28;20037;-39
2021/10/02 10:09:09;;;;;;;1.90;0.60;;;;;;;;;;5051713;28;20389;-39
2021/10/02 10:11:44;;;;;;;1.45;0.52;;;;;;;;;;5050669;28;20010;-39
2021/10/02 10:14:18;;;;;;;3.00;0.60;;;;;;;;;;5052081;28;20025;-38
2021/10/02 10:16:45;;;;;;;1.58;0.52;;;;;;;;;;5051192;28;20020;-40
2021/10/02 10:19:19;;;;;;;2.72;0.85;;;;;;;;;;5051549;28;20036;-39
2021/10/02 10:21:46;;;;;;;1.65;0.70;;;;;;;;;;5049771;28;20114;-39
2021/10/02 10:24:20;;;;;;;3.60;0.60;;;;;;;;;;5051850;28;20031;-38
2021/10/02 10:26:47;;;;;;;5.95;0.77;;;;;;;;;;5051532;28;20029;-40
2021/10/02 10:29:14;;;;;;;6.32;1.30;;;;;;;;;;5051113;28;20032;-40
2021/10/02 10:31:42;;;;;;;9.90;1.52;;;;;;;;;;5060846;28;20064;-40
2021/10/02 10:34:09;;;;;;;3.05;1.13;;;;;;;;;;5071548;28;20031;-39
2021/10/02 10:36:37;;;;;;;5.18;1.48;;;;;;;;;;5053416;28;20100;-39
2021/10/02 10:39:03;;;;;;;7.85;1.77;;;;;;;;;;5071153;28;20031;-39
2021/10/02 10:41:31;;;;;;;2.92;1.45;;;;;;;;;;5062757;28;20024;-39
2021/10/02 10:43:58;;;;;;;4.97;1.60;;;;;;;;;;5071604;28;20086;-40
2021/10/02 10:46:25;;;;;;;4.10;1.33;;;;;;;;;;5071772;28;20107;-39
2021/10/02 10:48:53;;;;;;;8.43;1.80;;;;;;;;;;5052929;28;20384;-38
2021/10/02 10:51:21;;;;;;;5.82;1.80;;;;;;;;;;5058324;28;20049;-40
2021/10/02 10:53:49;;;;;;;7.25;1.83;;;;;;;;;;5050567;28;20477;-39
2021/10/02 10:56:19;;;;;;;9.65;1.92;;;;;;;;;;5050614;28;20025;-40
2021/10/02 10:58:59;;;;;;;5.13;1.58;;;;;;;;;;5050726;28;20024;-40
2021/10/02 11:01:36;;;;;;;9.13;1.20;;;;;;;;;;5053027;28;20059;-37
2021/10/02 11:04:03;;;;;;;13.27;1.40;;;;;;;;;;5071145;28;20017;-38
2021/10/02 11:06:52;;;;;;;5.28;0.98;;;;;;;;;;5071494;28;20495;-37
2021/10/02 11:09:39;;;;;;;4.03;0.90;;;;;;;;;;5071036;28;20037;-37
2021/10/02 11:12:07;;;;;;;1.35;0.60;;;;;;;;;;5064286;28;20016;-39
2021/10/02 11:14:50;;;;;;;3.88;1.10;;;;;;;;;;5073864;28;20028;-39
2021/10/02 11:17:33;;;;;;;5.60;1.17;;;;;;;;;;5075108;28;20104;-36
2021/10/02 11:20:21;;;;;;;6.47;0.98;;;;;;;;;;5074991;28;20499;-37
2021/10/02 11:23:13;;;;;;;5.78;1.10;;;;;;;;;;5056149;28;20123;-38
2021/10/02 11:25:42;;;;;;;8.68;0.75;;;;;;;;;;5055091;28;20626;-38
2021/10/02 11:28:25;;;;;;;5.00;1.00;;;;;;;;;;5054666;28;20021;-36
2021/10/02 11:30:53;;;;;;;13.20;1.40;;;;;;;;;;5054810;28;20103;-36
2021/10/02 11:33:33;;;;;;;11.02;1.65;;;;;;;;;;5065519;28;20103;-36
2021/10/02 11:36:01;;;;;;;6.65;1.30;;;;;;;;;;5074967;28;20051;-36
2021/10/02 11:38:38;;;;;;;10.75;1.20;;;;;;;;;;5074448;28;20384;-36
2021/10/02 11:41:31;;;;;;;8.65;0.90;;;;;;;;;;5074601;28;20047;-37
2021/10/02 11:43:58;;;;;;;10.25;1.00;;;;;;;;;;5051262;28;20043;-36
2021/10/02 11:46:25;;;;;;;6.40;0.80;;;;;;;;;;5054636;28;20032;-37
2021/10/02 11:48:53;;;;;;;4.90;0.80;;;;;;;;;;5054136;28;20396;-38
2021/10/02 11:51:21;;;;;;;17.92;1.05;;;;;;;;;;5061401;28;20109;-35
2021/10/02 11:53:56;;;;;;;28.00;1.75;;;;;;;;;;5069296;28;20068;-36
2021/10/02 11:56:30;;;;;;;8.23;0.90;;;;;;;;;;5074045;28;20056;-36
2021/10/02 11:58:58;;;;;;;77.10;4.40;;;;;;;;;;5055491;28;20388;-37
2021/10/02 12:01:28;;;;;;;49.92;2.28;;;;;;;;;;5074167;28;20484;-36
2021/10/02 12:04:10;;;;;;;144.85;6.03;;;;;;;;;;5069350;28;20025;-36
2021/10/02 12:06:42;;;;;;;69.82;3.58;;;;;;;;;;5074619;28;20028;-36
2021/10/02 12:09:09;;;;;;;;;;;;;;;;;;5074252;28;20094;-36
2021/10/02 12:11:44;;;;;;;20.65;2.08;;;;;;;;;;5074350;28;20383;-37
2021/10/02 12:14:13;;;;;;;25.60;1.40;;;;;;;;;;5048351;28;20129;-37
2021/10/02 12:16:40;;;;;;;24.00;1.83;;;;;;;;;;5054695;28;20025;-36
2021/10/02 12:19:09;;;;;;;20.20;1.30;;;;;;;;;;5053950;28;20066;-39
2021/10/02 12:21:43;;;;;;;17.02;1.25;;;;;;;;;;5053806;28;20048;-37
2021/10/02 12:24:31;;;;;;;10.30;0.88;;;;;;;;;;5063113;28;20480;-36
2021/10/02 12:27:18;;;;;;;10.57;1.23;;;;;;;;;;5074096;28;20036;-38
2021/10/02 12:29:47;;;;;;;18.80;1.38;;;;;;;;;;5073487;28;20085;-37
2021/10/02 12:32:15;;;;;;;30.42;2.65;;;;;;;;;;5073350;28;20048;-37
2021/10/02 12:34:49;;;;;;;12.63;1.15;;;;;;;;;;5068512;28;20013;-38
2021/10/02 12:37:18;;;;;;;24.10;1.67;;;;;;;;;;5074174;28;20028;-37
2021/10/02 12:39:47;;;;;;;26.55;1.55;;;;;;;;;;5073075;28;20031;-38
2021/10/02 12:42:15;;;;;;;17.73;1.17;;;;;;;;;;5072962;28;20024;-36
2021/10/02 12:44:46;;;;;;;28.17;2.10;;;;;;;;;;5068681;28;20078;-37
2021/10/02 12:47:13;;;;;;;37.35;2.50;;;;;;;;;;5073983;28;20104;-37
2021/10/02 12:49:43;;;;;;;21.90;1.65;;;;;;;;;;5073098;28;20072;-37
2021/10/02 12:52:10;;;;;;;36.97;2.05;;;;;;;;;;5073288;28;20403;-37
2021/10/02 12:54:39;;;;;;;11.65;1.73;;;;;;;;;;5060774;28;20027;-38
2021/10/02 12:57:10;;;;;;;17.00;1.23;;;;;;;;;;5071417;28;20112;-35
2021/10/02 12:59:39;;;;;;;11.07;1.33;;;;;;;;;;5072201;28;20468;-37
2021/10/02 13:02:06;;;;;;;19.63;1.55;;;;;;;;;;5069909;28;20032;-40
2021/10/02 13:04:34;;;;;;;17.67;1.50;;;;;;;;;;5058460;28;20021;-39
2021/10/02 13:07:02;;;;;;;19.70;1.38;;;;;;;;;;5071646;28;20024;-43
2021/10/02 13:09:29;;;;;;;13.05;1.23;;;;;;;;;;5071455;28;20430;-39
2021/10/02 13:12:05;;;;;;;12.27;1.20;;;;;;;;;;5053554;28;20013;-42
2021/10/02 13:14:34;;;;;;;12.45;1.20;;;;;;;;;;5059633;28;20104;-42
2021/10/02 13:17:05;;;;;;;18.23;1.20;;;;;;;;;;5069381;28;20029;-38
2021/10/02 13:19:33;;;;;;;16.27;1.47;;;;;;;;;;5070738;28;20028;-40
2021/10/02 13:22:29;;;;;;;13.90;1.38;;;;;;;;;;5071098;28;20081;-46
2021/10/02 13:25:28;;;;;;;8.60;1.05;;;;;;;;;;5047973;28;20067;-41
2021/10/02 13:27:59;;;;;;;6.53;0.88;;;;;;;;;;5041608;28;20061;-41
2021/10/02 13:30:30;;;;;;;21.60;1.08;;;;;;;;;;5057678;28;20118;-40
2021/10/02 13:33:00;;;;;;;12.23;1.00;;;;;;;;;;5071565;28;20025;-40
2021/10/02 13:35:29;;;;;;;10.90;1.30;;;;;;;;;;5057291;28;20021;-42
2021/10/02 13:37:57;;;;;;;10.23;0.80;;;;;;;;;;5052581;28;20017;-39
2021/10/02 13:40:33;;;;;;;12.75;1.23;;;;;;;;;;5051322;28;20029;-37
2021/10/02 13:43:01;;;;;;;13.05;0.90;;;;;;;;;;5064378;28;20029;-39
2021/10/02 13:45:30;;;;;;;9.60;0.90;;;;;;;;;;5061371;28;20067;-39
2021/10/02 13:48:03;;;;;;;13.40;1.10;;;;;;;;;;5063113;28;20028;-40
2021/10/02 13:50:30;;;;;;;9.55;0.80;;;;;;;;;;5060587;28;20041;-39
2021/10/02 13:52:58;;;;;;;8.95;1.00;;;;;;;;;;5068129;28;20472;-36
2021/10/02 13:55:25;;;;;;;14.32;0.75;;;;;;;;;;5064494;28;20071;-39
2021/10/02 13:57:55;;;;;;;10.38;1.17;;;;;;;;;;5079650;28;20040;-38
2021/10/02 14:00:23;;;;;;;16.30;1.30;;;;;;;;;;5078881;28;20514;-39
2021/10/02 14:02:51;;;;;;;13.77;1.17;;;;;;;;;;5076155;28;20386;-40
2021/10/02 14:05:18;;;;;;;9.80;1.48;;;;;;;;;;5076985;28;20029;-40
2021/10/02 14:07:45;;;;;;;17.70;1.20;;;;;;;;;;5071433;28;20498;-40
2021/10/02 14:10:13;;;;;;;17.15;1.27;;;;;;;;;;5055587;28;20051;-40
2021/10/02 14:12:40;;;;;;;15.57;1.70;;;;;;;;;;5069012;28;20028;-40
2021/10/02 14:15:09;;;;;;;28.35;1.65;;;;;;;;;;5070635;28;20028;-40
2021/10/02 14:17:36;;;;;;;24.95;1.70;;;;;;;;;;5053596;28;20028;-44
2021/10/02 14:20:07;;;;;;;27.50;2.10;;;;;;;;;;5073491;28;20109;-38
2021/10/02 14:22:34;;;;;;;24.00;2.33;;;;;;;;;;5074200;28;20036;-41
2021/10/02 14:25:02;;;;;;;17.95;1.60;;;;;;;;;;5074053;28;20644;-43
2021/10/02 14:27:30;;;;;;;17.58;1.65;;;;;;;;;;5046613;28;20033;-38
2021/10/02 14:29:57;;;;;;;15.45;1.73;;;;;;;;;;5070941;28;20056;-40
2021/10/02 14:32:24;;;;;;;24.60;2.13;;;;;;;;;;5072978;28;20071;-41
2021/10/02 14:34:52;;;;;;;13.18;1.70;;;;;;;;;;5052338;28;20365;-37
2021/10/02 14:37:19;;;;;;;20.98;1.58;;;;;;;;;;5065526;28;20491;-36
2021/10/02 14:39:48;;;;;;;27.63;1.77;;;;;;;;;;5070250;28;20036;-33
2021/10/02 14:42:17;;;;;;;23.50;2.38;;;;;;;;;;5068249;28;20398;-34
2021/10/02 14:44:45;;;;;;;21.92;2.03;;;;;;;;;;5061921;28;20033;-38
2021/10/02 14:47:12;;;;;;;30.50;2.65;;;;;;;;;;5056620;28;20040;-35
2021/10/02 14:49:39;;;;;;;26.80;1.95;;;;;;;;;;5046539;28;20032;-36
2021/10/02 14:52:06;;;;;;;23.98;1.73;;;;;;;;;;5067808;28;20537;-37
2021/10/02 14:54:34;;;;;;;22.73;2.25;;;;;;;;;;5049033;28;20418;-35
2021/10/02 14:57:03;;;;;;;24.30;1.65;;;;;;;;;;5052434;28;20032;-42
2021/10/02 14:59:31;;;;;;;15.77;2.10;;;;;;;;;;5063700;28;20387;-36
2021/10/02 15:02:05;;;;;;;28.85;1.98;;;;;;;;;;5047860;28;20461;-37
2021/10/02 15:04:35;;;;;;;21.20;2.17;;;;;;;;;;5069924;28;20016;-36
2021/10/02 15:07:03;;;;;;;21.65;1.98;;;;;;;;;;5057567;28;20516;-39
2021/10/02 15:09:34;;;;;;;16.30;1.70;;;;;;;;;;5061479;28;20032;-34
2021/10/02 15:12:04;;;;;;;21.23;1.85;;;;;;;;;;5064879;28;20032;-35
2021/10/02 15:14:32;;;;;;;21.50;1.40;;;;;;;;;;5067954;28;20070;-37
2021/10/02 15:16:59;;;;;;;28.13;2.47;;;;;;;;;;5070492;28;20032;-40
2021/10/02 15:19:26;;;;;;;18.17;1.55;;;;;;;;;;5061362;28;20032;-35
2021/10/02 15:21:57;;;;;;;37.42;2.50;;;;;;;;;;5063695;28;20106;-37
2021/10/02 15:24:34;;;;;;;19.27;1.85;;;;;;;;;;5072304;28;20031;-37
2021/10/02 15:27:08;;;;;;;23.25;2.83;;;;;;;;;;5078965;28;20475;-37
2021/10/02 15:29:35;;;;;;;26.23;2.17;;;;;;;;;;5072583;28;20063;-36
2021/10/02 15:32:05;;;;;;;33.65;2.60;;;;;;;;;;5067075;28;20024;-37
2021/10/02 15:34:33;;;;;;;20.35;2.25;;;;;;;;;;5065616;28;20024;-38
2021/10/02 15:37:01;;;;;;;28.00;2.33;;;;;;;;;;5059167;28;20029;-37
2021/10/02 15:39:29;;;;;;;44.58;2.45;;;;;;;;;;5062139;28;20031;-34
2021/10/02 15:41:58;;;;;;;22.67;1.85;;;;;;;;;;5071681;28;20020;-40
2021/10/02 15:44:26;;;;;;;24.10;2.58;;;;;;;;;;5074107;28;20025;-35
2021/10/02 15:46:54;;;;;;;32.22;2.63;;;;;;;;;;5076626;28;20024;-35